Time;durP1;ratioP1;P1;durP2;ratioP2;P2;SDS_P1;SDS_P2;PMS_P1;PMS_P2;Temp;Humidity;BMP_temperature;BMP_pressure;BME280_temperature;BME280_humidity;BME280_pressure;Samples;Min_cycle;Max_cycle;Signal;HPM_P1;HPM_P2
2022/07/31 00:00:08;;;;;;;1.90;1.80;;;21.20;1.00;;;;;;5115724;28;20179;-71
2022/07/31 00:02:34;;;;;;;2.08;1.90;;;21.20;1.00;;;;;;5115588;28;20167;-71
2022/07/31 00:05:00;;;;;;;2.95;2.42;;;21.00;1.00;;;;;;5115734;28;20243;-71
2022/07/31 00:07:26;;;;;;;5.50;2.20;;;21.00;1.00;;;;;;5115595;28;20246;-71
2022/07/31 00:09:52;;;;;;;2.28;2.08;;;21.00;1.00;;;;;;5115050;28;20215;-71
2022/07/31 00:12:17;;;;;;;2.17;2.08;;;20.90;1.00;;;;;;5115403;28;20605;-71
2022/07/31 00:14:44;;;;;;;4.07;2.10;;;20.90;1.00;;;;;;5115534;28;20171;-71
2022/07/31 00:17:09;;;;;;;2.42;2.10;;;20.90;1.00;;;;;;5115370;28;20294;-71
2022/07/31 00:19:36;;;;;;;2.60;2.20;;;20.90;1.00;;;;;;5097154;28;20202;-71
2022/07/31 00:22:01;;;;;;;2.50;2.30;;;20.70;1.00;;;;;;5115400;28;20178;-71
2022/07/31 00:24:28;;;;;;;2.45;1.98;;;20.50;1.00;;;;;;5114968;28;20167;-71
2022/07/31 00:26:53;;;;;;;2.20;2.10;;;20.50;1.00;;;;;;5115106;28;20535;-71
2022/07/31 00:29:19;;;;;;;2.47;2.33;;;20.50;1.00;;;;;;5115393;28;20212;-71
2022/07/31 00:31:44;;;;;;;2.30;2.07;;;20.50;1.00;;;;;;5115197;28;20246;-71
2022/07/31 00:34:10;;;;;;;2.50;2.30;;;20.40;1.00;;;;;;5115129;28;20713;-71
2022/07/31 00:36:36;;;;;;;2.10;1.90;;;20.50;1.00;;;;;;5096797;28;20214;-71
2022/07/31 00:39:02;;;;;;;2.47;2.28;;;20.40;1.00;;;;;;5114840;28;20171;-71
2022/07/31 00:41:42;;;;;;;5.88;2.17;;;20.40;1.00;;;;;;5114913;28;20182;-71
2022/07/31 00:44:09;;;;;;;2.58;2.20;;;20.40;1.00;;;;;;5115167;28;20174;-71
2022/07/31 00:46:35;;;;;;;2.67;2.10;;;20.40;1.00;;;;;;5114975;28;20189;-71
2022/07/31 00:49:01;;;;;;;3.30;2.07;;;20.30;1.00;;;;;;5114979;28;20244;-71
2022/07/31 00:51:26;;;;;;;2.55;2.35;;;20.30;1.00;;;;;;5114754;28;20182;-72
2022/07/31 00:53:52;;;;;;;2.22;2.03;;;20.20;1.00;;;;;;5114767;28;20720;-71
2022/07/31 00:56:18;;;;;;;2.87;2.10;;;20.30;1.00;;;;;;5096448;28;20677;-71
2022/07/31 00:58:43;;;;;;;2.40;2.20;;;20.20;1.00;;;;;;5114093;28;20515;-72
2022/07/31 01:01:09;;;;;;;2.45;2.25;;;20.10;1.00;;;;;;5114552;28;20252;-71
2022/07/31 01:03:34;;;;;;;3.70;2.17;;;20.00;1.00;;;;;;5114687;28;20171;-72
2022/07/31 01:06:00;;;;;;;2.20;2.00;;;20.10;1.00;;;;;;5114144;28;20175;-70
2022/07/31 01:08:26;;;;;;;3.43;2.67;;;20.00;1.00;;;;;;5114385;28;20258;-72
2022/07/31 01:10:58;;;;;;;2.90;1.97;;;20.00;1.00;;;;;;5114105;28;20215;-72
2022/07/31 01:13:38;;;;;;;2.83;1.87;;;20.00;1.00;;;;;;5114308;28;20169;-72
2022/07/31 01:16:08;;;;;;;2.50;2.30;;;20.10;1.00;;;;;;5114394;28;20214;-72
2022/07/31 01:18:36;;;;;;;5.57;2.30;;;20.00;1.00;;;;;;5114319;28;20199;-72
2022/07/31 01:21:08;;;;;;;3.20;2.43;;;20.00;1.00;;;;;;5113909;28;20561;-72
2022/07/31 01:24:05;;;;;;;3.63;2.10;;;19.90;1.00;;;;;;5114341;28;20171;-72
2022/07/31 01:26:44;;;;;;;2.10;2.00;;;19.80;1.00;;;;;;5114025;28;20203;-72
2022/07/31 01:29:15;;;;;;;3.53;2.40;;;19.70;7.10;;;;;;5114259;28;20662;-72
2022/07/31 01:32:18;;;;;;;2.47;2.27;;;19.80;7.20;;;;;;5095839;28;20186;-71
2022/07/31 01:35:12;;;;;;;3.47;2.22;;;19.90;8.40;;;;;;5113639;28;20178;-72
2022/07/31 01:38:04;;;;;;;2.60;2.40;;;19.90;12.20;;;;;;5113916;28;20199;-72
2022/07/31 01:40:39;;;;;;;2.43;2.23;;;19.70;21.60;;;;;;5105289;28;20207;-72
2022/07/31 01:43:10;;;;;;;2.60;2.40;;;19.70;23.50;;;;;;5113977;28;20167;-72
2022/07/31 01:45:39;;;;;;;4.93;2.60;;;19.70;28.60;;;;;;5095733;28;20725;-72
2022/07/31 01:48:07;;;;;;;3.10;2.90;;;19.60;31.10;;;;;;5113842;28;20642;-72
2022/07/31 01:50:35;;;;;;;3.03;2.67;;;19.60;35.70;;;;;;5095294;28;20258;-72
2022/07/31 01:53:01;;;;;;;3.17;2.47;;;19.60;37.70;;;;;;5113749;28;20214;-71
2022/07/31 01:55:29;;;;;;;5.00;2.70;;;19.60;37.20;;;;;;5113674;28;20180;-71
2022/07/31 01:57:55;;;;;;;2.67;2.37;;;19.60;39.40;;;;;;5113808;28;20680;-71
2022/07/31 02:00:21;;;;;;;2.47;2.30;;;19.60;42.40;;;;;;5113834;28;20171;-71
2022/07/31 02:02:49;;;;;;;4.83;2.50;;;19.50;45.50;;;;;;5113732;28;20191;-71
2022/07/31 02:05:17;;;;;;;3.70;2.87;;;19.50;46.80;;;;;;5113173;28;20250;-70
2022/07/31 02:07:44;;;;;;;2.90;2.70;;;19.40;47.50;;;;;;5113726;28;20196;-71
2022/07/31 02:10:13;;;;;;;2.50;2.27;;;19.50;47.90;;;;;;5117003;28;20219;-72
2022/07/31 02:12:40;;;;;;;3.03;2.40;;;19.50;50.80;;;;;;5099604;28;20174;-72
2022/07/31 02:15:08;;;;;;;3.57;2.73;;;19.40;54.50;;;;;;5117789;28;20171;-72
2022/07/31 02:17:35;;;;;;;2.70;2.50;;;19.40;54.60;;;;;;5118010;28;20229;-70
2022/07/31 02:20:04;;;;;;;4.07;2.70;;;19.40;54.10;;;;;;5117562;28;20171;-71
2022/07/31 02:22:30;;;;;;;5.73;2.60;;;19.30;60.50;;;;;;5117587;28;20163;-71
2022/07/31 02:24:56;;;;;;;2.80;2.17;;;19.30;62.30;;;;;;5117882;28;20624;-71
2022/07/31 02:27:25;;;;;;;2.70;2.43;;;19.30;63.90;;;;;;5117886;28;20182;-71
2022/07/31 02:29:52;;;;;;;2.47;2.30;;;19.20;69.80;;;;;;5117769;28;20187;-71
2022/07/31 02:32:20;;;;;;;2.60;2.40;;;19.20;71.30;;;;;;5117582;28;20168;-71
2022/07/31 02:34:46;;;;;;;2.63;2.43;;;19.20;74.50;;;;;;5117252;28;20183;-71
2022/07/31 02:37:14;;;;;;;2.30;2.20;;;19.20;77.70;;;;;;5117460;28;20203;-71
2022/07/31 02:39:40;;;;;;;2.40;2.20;;;19.20;79.60;;;;;;5117307;28;20243;-71
2022/07/31 02:42:06;;;;;;;3.80;2.40;;;19.20;84.30;;;;;;5117552;28;20178;-71
2022/07/31 02:44:33;;;;;;;3.63;2.30;;;19.20;82.70;;;;;;5117309;28;20255;-71
2022/07/31 02:47:01;;;;;;;2.80;2.60;;;19.20;88.60;;;;;;5117354;28;20258;-71
2022/07/31 02:49:28;;;;;;;2.80;2.60;;;19.20;88.00;;;;;;5116951;28;20644;-71
2022/07/31 02:51:55;;;;;;;3.17;2.60;;;19.20;87.50;;;;;;5117183;28;20190;-71
2022/07/31 02:54:23;;;;;;;3.23;2.27;;;19.20;88.40;;;;;;5117187;28;20163;-72
2022/07/31 02:56:49;;;;;;;2.83;2.00;;;19.10;90.80;;;;;;5116898;28;20211;-71
2022/07/31 02:59:15;;;;;;;2.53;2.13;;;19.20;91.20;;;;;;5117155;28;20182;-70
2022/07/31 03:01:41;;;;;;;2.40;2.20;;;19.20;90.60;;;;;;5117035;28;20540;-71
2022/07/31 03:04:07;;;;;;;2.60;2.40;;;19.20;89.70;;;;;;5116648;28;20262;-71
2022/07/31 03:06:33;;;;;;;3.03;2.40;;;19.20;91.00;;;;;;5116566;28;20266;-71
2022/07/31 03:08:58;;;;;;;3.13;2.47;;;19.30;92.40;;;;;;5116623;28;20231;-71
2022/07/31 03:11:24;;;;;;;2.87;2.67;;;19.20;92.40;;;;;;5116815;28;20261;-71
2022/07/31 03:13:52;;;;;;;2.97;2.70;;;19.20;91.50;;;;;;5116720;28;20163;-71
2022/07/31 03:16:19;;;;;;;2.80;2.40;;;19.20;93.30;;;;;;5116090;28;20206;-70
2022/07/31 03:18:45;;;;;;;2.90;2.70;;;19.20;94.70;;;;;;5116791;28;20294;-71
2022/07/31 03:21:12;;;;;;;3.63;2.50;;;19.20;93.90;;;;;;5115970;28;20213;-71
2022/07/31 03:23:38;;;;;;;2.70;2.50;;;19.10;96.60;;;;;;5116408;28;20175;-71
2022/07/31 03:26:04;;;;;;;3.63;2.57;;;19.00;97.50;;;;;;5116294;28;20300;-71
2022/07/31 03:28:30;;;;;;;4.47;2.53;;;19.00;98.00;;;;;;5116290;28;20622;-71
2022/07/31 03:30:56;;;;;;;3.70;2.70;;;19.00;98.10;;;;;;5115952;28;20178;-71
2022/07/31 03:33:22;;;;;;;3.37;2.60;;;19.10;98.10;;;;;;5116469;28;20622;-71
2022/07/31 03:35:48;;;;;;;3.13;2.40;;;19.20;97.10;;;;;;5097896;28;20229;-71
2022/07/31 03:38:14;;;;;;;2.90;2.50;;;19.20;97.80;;;;;;5116336;28;20175;-71
2022/07/31 03:40:40;;;;;;;2.80;2.60;;;19.10;96.60;;;;;;5097635;28;20171;-71
2022/07/31 03:43:05;;;;;;;3.27;2.60;;;19.10;97.40;;;;;;5116315;28;20189;-70
2022/07/31 03:45:33;;;;;;;3.83;2.70;;;19.00;98.80;;;;;;5116041;28;20175;-70
2022/07/31 03:48:00;;;;;;;3.80;2.67;;;19.00;99.90;;;;;;5097927;28;20171;-72
2022/07/31 03:50:27;;;;;;;3.43;2.50;;;19.10;99.90;;;;;;5115969;28;20179;-71
2022/07/31 03:52:53;;;;;;;4.50;2.80;;;19.10;99.90;;;;;;5116022;28;20202;-71
2022/07/31 03:55:19;;;;;;;2.83;2.60;;;19.00;99.90;;;;;;5115634;28;20186;-71
2022/07/31 03:57:45;;;;;;;3.83;2.70;;;19.00;99.90;;;;;;5115593;28;20385;-71
2022/07/31 04:00:12;;;;;;;3.03;2.80;;;19.10;99.90;;;;;;5115396;28;20237;-71
2022/07/31 04:02:37;;;;;;;3.90;2.80;;;19.10;99.90;;;;;;5115965;28;20172;-71
2022/07/31 04:05:04;;;;;;;3.17;2.70;;;19.10;99.90;;;;;;5115814;28;20649;-72
2022/07/31 04:07:29;;;;;;;3.90;2.90;;;19.10;99.90;;;;;;5115584;28;20262;-72
2022/07/31 04:09:55;;;;;;;3.47;2.80;;;19.10;99.90;;;;;;5115185;28;20647;-71
2022/07/31 04:12:21;;;;;;;3.47;3.00;;;19.20;99.90;;;;;;5115283;28;20313;-71
2022/07/31 04:14:46;;;;;;;3.10;2.80;;;19.10;99.90;;;;;;5115198;28;20171;-71
2022/07/31 04:17:12;;;;;;;3.37;3.07;;;19.10;99.90;;;;;;5115244;28;20564;-71
2022/07/31 04:19:38;;;;;;;3.70;3.00;;;19.00;99.90;;;;;;5115409;28;20544;-71
2022/07/31 04:22:04;;;;;;;5.17;3.30;;;19.00;99.90;;;;;;5115334;28;20163;-71
2022/07/31 04:24:29;;;;;;;3.53;3.20;;;19.00;99.90;;;;;;5115387;28;20175;-72
2022/07/31 04:26:56;;;;;;;6.83;3.43;;;19.00;99.90;;;;;;5115205;28;20178;-70
2022/07/31 04:29:22;;;;;;;4.33;2.70;;;18.90;99.90;;;;;;5115226;28;20274;-71
2022/07/31 04:31:47;;;;;;;3.17;2.80;;;19.00;99.90;;;;;;5114366;28;20687;-70
2022/07/31 04:34:13;;;;;;;4.07;3.00;;;19.00;99.90;;;;;;5114647;28;20278;-71
2022/07/31 04:36:39;;;;;;;3.40;3.10;;;19.00;99.90;;;;;;5114966;28;20665;-72
2022/07/31 04:39:05;;;;;;;3.33;2.90;;;19.00;99.90;;;;;;5115062;28;20618;-71
2022/07/31 04:41:31;;;;;;;3.30;3.00;;;19.00;99.90;;;;;;5114750;28;20173;-71
2022/07/31 04:43:56;;;;;;;3.97;3.17;;;19.00;99.90;;;;;;5114409;28;20609;-71
2022/07/31 04:46:23;;;;;;;4.00;3.10;;;19.00;99.90;;;;;;5114832;28;20622;-71
2022/07/31 04:48:49;;;;;;;3.10;2.90;;;19.00;99.90;;;;;;5114662;28;20337;-71
2022/07/31 04:51:18;;;;;;;4.93;3.10;;;19.00;99.90;;;;;;5114434;28;20224;-71
2022/07/31 04:53:45;;;;;;;3.07;2.80;;;19.10;99.90;;;;;;5114102;28;20182;-75
2022/07/31 04:58:55;;;;;;;4.00;3.60;;;19.00;99.90;;;;;;5114134;28;20170;-72
2022/07/31 05:01:20;;;;;;;3.97;3.37;;;19.00;99.90;;;;;;5114413;28;20167;-71
2022/07/31 05:03:46;;;;;;;3.47;3.10;;;19.00;99.90;;;;;;5114614;28;20316;-71
2022/07/31 05:06:12;;;;;;;3.43;3.10;;;18.90;99.90;;;;;;5114449;28;20171;-71
2022/07/31 05:08:38;;;;;;;3.73;3.43;;;19.00;99.90;;;;;;5114449;28;20303;-71
2022/07/31 05:11:23;;;;;;;4.53;3.73;;;19.00;99.90;;;;;;5113725;28;20368;-71
2022/07/31 05:13:54;;;;;;;4.20;3.80;;;19.00;99.90;;;;;;5114268;28;20218;-71
2022/07/31 05:16:20;;;;;;;4.00;3.70;;;19.00;99.90;;;;;;5113847;28;20203;-71
2022/07/31 05:18:46;;;;;;;4.13;3.83;;;19.00;99.90;;;;;;5114128;28;20182;-72
2022/07/31 05:21:13;;;;;;;4.20;3.90;;;19.10;99.90;;;;;;5113972;28;20167;-73
2022/07/31 05:23:40;;;;;;;5.83;3.90;;;19.20;99.90;;;;;;5096033;28;20180;-72
2022/07/31 05:26:06;;;;;;;4.20;3.90;;;19.20;99.90;;;;;;5114352;28;20211;-72
2022/07/31 05:28:32;;;;;;;4.00;3.70;;;19.20;99.90;;;;;;5113786;28;20171;-72
2022/07/31 05:30:58;;;;;;;4.53;3.97;;;19.20;99.90;;;;;;5113971;28;20175;-72
2022/07/31 05:33:23;;;;;;;3.87;3.63;;;19.20;99.90;;;;;;5113904;28;20175;-71
2022/07/31 05:35:49;;;;;;;4.57;4.17;;;19.30;99.90;;;;;;5113940;28;20234;-72
2022/07/31 05:38:15;;;;;;;5.47;4.10;;;19.30;99.90;;;;;;5113939;28;20177;-71
2022/07/31 05:40:41;;;;;;;6.60;4.33;;;19.30;99.90;;;;;;5113732;28;20179;-72
2022/07/31 05:43:06;;;;;;;4.50;4.20;;;19.40;99.90;;;;;;5113040;28;20224;-72
2022/07/31 05:45:32;;;;;;;4.17;3.77;;;19.50;99.90;;;;;;5095395;28;20179;-72
2022/07/31 05:47:58;;;;;;;7.27;4.17;;;19.50;99.60;;;;;;5095339;28;20179;-72
2022/07/31 05:50:23;;;;;;;6.13;4.20;;;19.50;99.20;;;;;;5113487;28;20255;-72
2022/07/31 05:52:49;;;;;;;4.37;4.00;;;19.60;99.90;;;;;;5113660;28;20182;-72
2022/07/31 05:55:15;;;;;;;5.80;4.40;;;19.80;98.40;;;;;;5113269;28;20510;-72
2022/07/31 05:57:41;;;;;;;7.53;4.27;;;20.00;87.80;;;;;;5112622;28;20613;-71
2022/07/31 06:00:07;;;;;;;4.03;3.63;;;20.10;83.90;;;;;;5113522;28;20606;-71
2022/07/31 06:02:33;;;;;;;3.97;3.67;;;20.20;77.60;;;;;;5113589;28;20174;-71
2022/07/31 06:04:59;;;;;;;4.90;4.30;;;20.40;53.70;;;;;;5113367;28;20231;-71
2022/07/31 06:07:25;;;;;;;4.25;3.85;;;20.60;48.20;;;;;;5113741;28;20250;-72
2022/07/31 06:09:50;;;;;;;4.22;3.88;;;21.00;31.60;;;;;;5113163;28;20234;-71
2022/07/31 06:12:16;;;;;;;6.30;4.10;;;21.10;23.80;;;;;;5112676;28;20671;-71
2022/07/31 06:14:41;;;;;;;5.13;4.20;;;21.40;16.80;;;;;;5113428;28;20171;-71
2022/07/31 06:17:07;;;;;;;4.55;4.05;;;21.60;6.50;;;;;;5112795;28;20203;-71
2022/07/31 06:19:33;;;;;;;4.50;4.13;;;21.60;3.70;;;;;;5113169;28;20262;-71
2022/07/31 06:21:59;;;;;;;7.50;4.13;;;21.30;16.90;;;;;;5112960;28;20185;-71
2022/07/31 06:24:25;;;;;;;4.80;4.30;;;21.10;23.00;;;;;;5112862;28;20678;-72
2022/07/31 06:26:55;;;;;;;4.40;3.60;;;21.40;21.30;;;;;;5112883;28;20175;-72
2022/07/31 06:29:21;;;;;;;4.55;4.15;;;21.90;1.00;;;;;;5113202;28;20160;-72
2022/07/31 06:31:47;;;;;;;4.82;4.13;;;22.30;1.00;;;;;;5113095;28;20194;-72
2022/07/31 06:34:12;;;;;;;4.60;4.20;;;22.90;1.00;;;;;;5113246;28;20713;-72
2022/07/31 06:36:38;;;;;;;5.68;4.20;;;23.10;1.00;;;;;;5113090;28;20214;-72
2022/07/31 06:39:04;;;;;;;4.75;4.30;;;23.00;1.00;;;;;;5112981;28;20175;-72
2022/07/31 06:41:48;;;;;;;5.75;4.70;;;22.90;1.00;;;;;;5112834;28;20242;-72
2022/07/31 06:44:18;;;;;;;7.10;4.93;;;22.80;1.00;;;;;;5112868;28;20630;-73
2022/07/31 06:46:47;;;;;;;4.40;4.10;;;23.00;1.00;;;;;;5112535;28;20185;-73
2022/07/31 06:49:14;;;;;;;4.80;4.50;;;23.20;1.00;;;;;;5112820;28;20174;-73
2022/07/31 06:51:40;;;;;;;4.50;4.10;;;23.40;1.00;;;;;;5113115;28;20622;-73
2022/07/31 06:54:09;;;;;;;5.07;4.68;;;23.30;1.00;;;;;;5112515;28;20178;-72
2022/07/31 06:56:36;;;;;;;5.55;4.30;;;23.20;1.00;;;;;;5114917;28;20696;-72
2022/07/31 06:59:03;;;;;;;5.43;4.00;;;22.80;1.00;;;;;;5117250;28;20269;-72
2022/07/31 07:01:28;;;;;;;6.10;4.32;;;22.60;1.00;;;;;;5098500;28;20545;-73
2022/07/31 07:03:54;;;;;;;5.05;4.28;;;22.80;1.00;;;;;;5116580;28;20171;-72
2022/07/31 07:06:21;;;;;;;5.18;4.43;;;23.20;1.00;;;;;;5116272;28;20250;-72
2022/07/31 07:08:46;;;;;;;4.78;4.10;;;22.90;1.00;;;;;;5097383;28;20174;-72
2022/07/31 07:11:13;;;;;;;4.80;4.40;;;23.20;1.00;;;;;;5116471;28;20530;-73
2022/07/31 07:13:39;;;;;;;6.43;4.10;;;23.30;1.00;;;;;;5116415;28;20174;-72
2022/07/31 07:16:05;;;;;;;4.53;4.10;;;23.30;1.00;;;;;;5116279;28;20210;-72
2022/07/31 07:18:31;;;;;;;6.75;4.45;;;23.70;1.00;;;;;;5116187;28;20171;-73
2022/07/31 07:20:56;;;;;;;5.63;4.18;;;24.30;1.00;;;;;;5116581;28;20623;-73
2022/07/31 07:23:22;;;;;;;4.63;4.22;;;24.00;1.00;;;;;;5116010;28;20167;-73
2022/07/31 07:25:48;;;;;;;5.00;4.60;;;23.60;1.00;;;;;;5116426;28;20233;-74
2022/07/31 07:28:14;;;;;;;4.32;3.92;;;23.90;1.00;;;;;;5115888;28;20244;-74
2022/07/31 07:30:40;;;;;;;5.38;4.60;;;24.10;1.00;;;;;;5116216;28;20695;-74
2022/07/31 07:33:05;;;;;;;4.43;4.00;;;24.20;1.00;;;;;;5098252;28;20233;-74
2022/07/31 07:35:31;;;;;;;4.20;3.90;;;24.10;1.00;;;;;;5097544;28;20193;-75
2022/07/31 07:37:57;;;;;;;4.28;3.88;;;24.70;1.00;;;;;;5114990;28;20207;-76
2022/07/31 07:40:23;;;;;;;3.80;3.50;;;26.90;99.90;;;;;;5115954;28;20164;-79
2022/07/31 07:42:49;;;;;;;3.83;3.53;;;28.50;99.90;;;;;;5097672;28;20175;-79
2022/07/31 07:45:14;;;;;;;3.78;3.50;;;28.60;1.00;;;;;;5116085;28;20160;-79
2022/07/31 07:47:40;;;;;;;4.95;3.53;;;28.80;1.00;;;;;;5115739;28;20175;-77
2022/07/31 07:50:08;;;;;;;3.70;3.08;;;29.80;1.00;;;;;;5115507;28;20174;-79
2022/07/31 07:52:34;;;;;;;3.22;3.03;;;31.10;1.00;;;;;;5097076;28;20195;-78
2022/07/31 07:54:59;;;;;;;4.70;3.30;;;31.80;99.90;;;;;;5115506;28;20703;-76
2022/07/31 07:57:25;;;;;;;2.97;2.78;;;33.30;99.90;;;;;;5115546;28;20295;-76
2022/07/31 07:59:51;;;;;;;3.45;3.15;;;33.50;99.90;;;;;;5115365;28;20242;-74
2022/07/31 08:02:17;;;;;;;3.05;2.85;;;33.30;99.90;;;;;;5115193;28;20590;-76
2022/07/31 08:04:43;;;;;;;4.13;2.88;;;33.50;99.90;;;;;;5115192;28;20176;-75
2022/07/31 08:07:09;;;;;;;3.40;3.10;;;32.30;99.90;;;;;;5114923;28;20175;-77
2022/07/31 08:09:36;;;;;;;3.03;2.80;;;31.60;99.90;;;;;;5115214;28;20269;-77
2022/07/31 08:12:03;;;;;;;3.08;2.88;;;31.50;99.90;;;;;;5114872;28;20649;-76
2022/07/31 08:14:28;;;;;;;3.33;2.90;;;31.80;99.90;;;;;;5115302;28;20171;-76
2022/07/31 08:16:54;;;;;;;3.35;2.70;;;33.00;99.90;;;;;;5114987;28;20203;-79
2022/07/31 08:19:20;;;;;;;2.70;2.50;;;33.00;99.90;;;;;;5115052;28;20208;-77
2022/07/31 08:21:46;;;;;;;3.10;2.83;;;32.40;99.90;;;;;;5096453;28;20567;-79
2022/07/31 08:24:12;;;;;;;2.92;2.63;;;32.70;99.90;;;;;;5115180;28;20178;-79
2022/07/31 08:29:23;;;;;;;3.38;3.08;;;30.30;99.90;;;;;;5115435;28;20528;-78
2022/07/31 08:31:50;;;;;;;3.50;3.20;;;30.20;1.00;;;;;;5115003;28;20650;-77
2022/07/31 08:34:16;;;;;;;3.60;3.40;;;29.60;1.00;;;;;;5115016;28;20523;-78
2022/07/31 08:36:42;;;;;;;4.93;3.08;;;29.10;1.00;;;;;;5114599;28;20257;-78
2022/07/31 08:39:08;;;;;;;3.90;3.47;;;29.30;1.00;;;;;;5096914;28;20186;-78
2022/07/31 08:41:37;;;;;;;4.25;3.72;;;28.90;48.30;;;;;;5113823;28;20163;-77
2022/07/31 08:44:04;;;;;;;3.78;3.47;;;28.70;99.90;;;;;;5096425;28;20193;-77
2022/07/31 08:46:36;;;;;;;6.25;3.45;;;28.20;99.90;;;;;;5114497;28;20167;-77
2022/07/31 08:49:03;;;;;;;4.40;4.00;;;27.40;1.00;;;;;;5114548;28;20613;-78
2022/07/31 08:51:31;;;;;;;3.90;3.60;;;27.20;99.90;;;;;;5114149;28;20172;-78
2022/07/31 08:53:59;;;;;;;4.05;3.70;;;27.00;1.00;;;;;;5114451;28;20163;-78
2022/07/31 08:56:24;;;;;;;3.97;3.70;;;27.10;99.90;;;;;;5095239;28;20229;-75
2022/07/31 08:58:50;;;;;;;3.88;3.53;;;27.10;1.00;;;;;;5114276;28;20622;-76
2022/07/31 09:01:16;;;;;;;4.15;3.78;;;27.90;99.90;;;;;;5113987;28;20163;-76
2022/07/31 09:03:43;;;;;;;4.03;3.72;;;28.70;1.00;;;;;;5114212;28;20215;-76
2022/07/31 09:06:09;;;;;;;3.70;3.40;;;30.10;1.00;;;;;;5113440;28;20163;-76
2022/07/31 09:08:36;;;;;;;4.15;3.75;;;30.40;1.00;;;;;;5113728;28;20759;-77
2022/07/31 09:11:05;;;;;;;6.82;3.50;;;31.30;99.90;;;;;;5114131;28;20215;-77
2022/07/31 09:13:33;;;;;;;3.75;3.55;;;31.60;99.90;;;;;;5114156;28;20163;-77
2022/07/31 09:15:59;;;;;;;4.30;3.92;;;30.70;99.90;;;;;;5113204;28;20174;-77
2022/07/31 09:18:25;;;;;;;4.13;3.83;;;29.70;1.00;;;;;;5095211;28;20268;-76
2022/07/31 09:20:56;;;;;;;6.70;3.90;;;29.20;1.00;;;;;;5113376;28;20171;-76
2022/07/31 09:23:22;;;;;;;4.55;4.05;;;28.70;1.00;;;;;;5113699;28;20228;-76
2022/07/31 09:26:00;;;;;;;5.22;4.45;;;29.00;89.30;;;;;;5095476;28;20209;-75
2022/07/31 09:28:32;;;;;;;5.55;4.40;;;29.10;1.00;;;;;;5114029;28;20177;-75
2022/07/31 09:30:58;;;;;;;4.63;4.22;;;30.00;1.00;;;;;;5095294;28;20193;-75
2022/07/31 09:33:27;;;;;;;4.80;4.50;;;30.90;1.00;;;;;;5095388;28;20175;-75
2022/07/31 09:35:53;;;;;;;6.30;4.50;;;31.60;99.90;;;;;;5113796;28;20649;-77
2022/07/31 09:38:19;;;;;;;5.00;4.60;;;31.40;99.90;;;;;;5095598;28;20175;-78
2022/07/31 09:40:45;;;;;;;5.82;5.32;;;30.70;99.90;;;;;;5113277;28;20205;-75
2022/07/31 09:43:21;;;;;;;5.55;4.85;;;30.20;1.00;;;;;;5094995;28;20202;-77
2022/07/31 09:45:57;;;;;;;5.63;5.13;;;29.90;1.00;;;;;;5113875;28;20254;-76
2022/07/31 09:48:23;;;;;;;6.18;4.88;;;29.80;1.00;;;;;;5113553;28;20159;-75
2022/07/31 09:50:56;;;;;;;5.43;5.00;;;29.80;1.00;;;;;;5112999;28;20714;-75
2022/07/31 09:53:23;;;;;;;5.38;4.53;;;30.20;1.00;;;;;;5112964;28;20171;-77
2022/07/31 09:55:53;;;;;;;5.65;5.20;;;30.00;1.00;;;;;;5113151;28;20178;-77
2022/07/31 09:58:19;;;;;;;5.53;5.13;;;29.80;1.00;;;;;;5113153;28;20170;-75
2022/07/31 10:00:52;;;;;;;5.18;4.65;;;29.80;1.00;;;;;;5113178;28;20627;-76
2022/07/31 10:03:18;;;;;;;5.13;4.70;;;28.90;1.00;;;;;;5094654;28;20610;-77
2022/07/31 10:05:46;;;;;;;4.93;4.47;;;28.60;99.90;;;;;;5113216;28;20603;-75
2022/07/31 10:08:16;;;;;;;5.20;4.80;;;28.80;1.00;;;;;;5112572;28;20684;-77
2022/07/31 10:10:46;;;;;;;5.05;4.65;;;28.30;99.90;;;;;;5113185;28;20218;-75
2022/07/31 10:13:16;;;;;;;6.20;4.95;;;29.30;1.00;;;;;;5095026;28;20175;-75
2022/07/31 10:15:45;;;;;;;6.28;4.80;;;29.00;18.30;;;;;;5113413;28;20172;-76
2022/07/31 10:18:11;;;;;;;5.40;5.00;;;29.30;1.00;;;;;;5112926;28;20211;-75
2022/07/31 10:20:39;;;;;;;5.10;4.70;;;29.50;1.00;;;;;;5112997;28;20163;-78
2022/07/31 10:23:13;;;;;;;5.43;5.03;;;29.40;1.00;;;;;;5112423;28;20198;-76
2022/07/31 10:25:48;;;;;;;5.70;5.15;;;28.60;51.90;;;;;;5112498;28;20242;-77
2022/07/31 10:28:14;;;;;;;4.95;4.65;;;28.30;99.90;;;;;;5113326;28;20178;-77
2022/07/31 10:30:40;;;;;;;5.25;4.88;;;28.20;1.00;;;;;;5114264;28;20182;-78
2022/07/31 10:33:06;;;;;;;5.38;4.97;;;27.70;99.90;;;;;;5116828;28;20258;-77
2022/07/31 10:35:42;;;;;;;5.95;5.05;;;27.20;99.90;;;;;;5116527;28;20186;-77
2022/07/31 10:38:07;;;;;;;6.68;4.88;;;26.70;99.90;;;;;;5117244;28;20306;-78
2022/07/31 10:40:40;;;;;;;5.20;4.90;;;26.70;1.00;;;;;;5116926;28;20195;-77
2022/07/31 10:43:29;;;;;;;5.82;5.32;;;26.50;99.90;;;;;;5116856;28;20186;-77
2022/07/31 10:45:55;;;;;;;5.00;4.60;;;26.50;1.00;;;;;;5116469;28;20656;-74
2022/07/31 10:48:22;;;;;;;5.95;4.28;;;27.10;1.00;;;;;;5116849;28;20186;-74
2022/07/31 10:50:59;;;;;;;5.05;4.47;;;27.90;1.00;;;;;;5116903;28;20216;-75
2022/07/31 10:53:25;;;;;;;5.07;4.68;;;28.40;1.00;;;;;;5098202;28;20194;-77
2022/07/31 10:56:12;;;;;;;5.78;4.20;;;28.00;1.60;;;;;;5116627;28;20206;-76
2022/07/31 10:58:53;;;;;;;4.53;4.20;;;28.20;1.00;;;;;;5115665;28;20215;-75
2022/07/31 11:01:19;;;;;;;7.43;4.22;;;28.80;1.00;;;;;;5116614;28;20195;-76
2022/07/31 11:03:48;;;;;;;4.43;4.03;;;28.90;99.90;;;;;;5116698;28;20194;-78
2022/07/31 11:06:14;;;;;;;6.10;4.35;;;28.40;1.00;;;;;;5115944;28;20208;-78
2022/07/31 11:08:47;;;;;;;4.68;4.22;;;28.40;1.00;;;;;;5116106;28;20171;-78
2022/07/31 11:11:14;;;;;;;5.43;4.60;;;28.80;1.00;;;;;;5116430;28;20698;-77
2022/07/31 11:13:54;;;;;;;4.72;4.32;;;28.40;1.00;;;;;;5116197;28;20183;-78
2022/07/31 11:16:21;;;;;;;3.97;3.67;;;28.30;1.00;;;;;;5116095;28;20665;-78
2022/07/31 11:19:01;;;;;;;3.65;3.35;;;27.60;39.70;;;;;;5116038;28;20179;-78
2022/07/31 11:21:31;;;;;;;4.60;4.00;;;27.00;99.90;;;;;;5115916;28;20163;-78
2022/07/31 11:23:57;;;;;;;4.15;3.70;;;26.90;99.90;;;;;;5116635;28;20182;-78
2022/07/31 11:26:23;;;;;;;4.00;3.58;;;26.80;1.00;;;;;;5116124;28;20268;-78
2022/07/31 11:28:49;;;;;;;3.90;3.47;;;26.90;1.00;;;;;;5116411;28;20164;-77
2022/07/31 11:31:14;;;;;;;3.95;3.50;;;26.70;99.90;;;;;;5115349;28;20171;-78
2022/07/31 11:33:45;;;;;;;4.68;3.08;;;26.40;99.90;;;;;;5116361;28;20171;-78
2022/07/31 11:36:12;;;;;;;3.88;3.05;;;26.50;99.30;;;;;;5097993;28;20209;-78
2022/07/31 11:38:40;;;;;;;3.28;3.08;;;26.60;99.90;;;;;;5115893;28;20172;-78
2022/07/31 11:41:06;;;;;;;3.20;2.90;;;26.60;1.00;;;;;;5114934;28;20293;-77
2022/07/31 11:43:33;;;;;;;3.78;3.45;;;26.50;1.00;;;;;;5116260;28;20254;-77
2022/07/31 11:46:00;;;;;;;3.45;3.20;;;26.40;1.00;;;;;;5115063;28;20163;-77
2022/07/31 11:48:26;;;;;;;3.97;3.67;;;26.20;99.90;;;;;;5097506;28;20535;-77
2022/07/31 11:50:52;;;;;;;6.68;3.60;;;26.20;99.90;;;;;;5115353;28;20213;-77
2022/07/31 11:53:19;;;;;;;5.25;3.30;;;26.50;99.90;;;;;;5115980;28;20167;-77
2022/07/31 11:55:44;;;;;;;3.85;3.13;;;26.70;1.00;;;;;;5115032;28;20242;-78
2022/07/31 11:58:10;;;;;;;3.72;3.53;;;27.00;1.00;;;;;;5115044;28;20345;-77
2022/07/31 12:00:35;;;;;;;3.35;3.05;;;27.10;1.00;;;;;;5115117;28;20178;-75
2022/07/31 12:03:01;;;;;;;3.17;2.97;;;27.20;1.00;;;;;;5115014;28;20246;-76
2022/07/31 12:05:27;;;;;;;2.72;2.53;;;27.20;99.90;;;;;;5080461;28;20173;-76
2022/07/31 12:07:52;;;;;;;3.65;3.13;;;27.20;1.00;;;;;;5115141;28;20258;-76
2022/07/31 12:10:20;;;;;;;3.85;3.00;;;27.10;1.00;;;;;;5114979;28;20219;-75
2022/07/31 12:12:46;;;;;;;3.45;3.00;;;27.30;99.90;;;;;;5114383;28;20190;-75
2022/07/31 12:15:21;;;;;;;4.28;2.70;;;27.70;99.90;;;;;;5115084;28;20167;-75
2022/07/31 12:17:47;;;;;;;3.75;2.80;;;27.80;28.90;;;;;;5115068;28;20198;-74
2022/07/31 12:20:13;;;;;;;2.60;2.40;;;27.70;1.00;;;;;;5115084;28;20190;-75
2022/07/31 12:22:38;;;;;;;5.18;2.50;;;27.90;1.00;;;;;;5114814;28;20190;-77
2022/07/31 12:25:08;;;;;;;3.67;2.72;;;27.70;1.00;;;;;;5115120;28;20164;-77
2022/07/31 12:27:34;;;;;;;2.17;2.08;;;27.60;1.00;;;;;;5114431;28;20163;-77
2022/07/31 12:30:11;;;;;;;2.50;2.30;;;27.60;1.00;;;;;;5114912;28;20160;-77
2022/07/31 12:32:37;;;;;;;2.67;2.47;;;27.20;1.00;;;;;;5114905;28;20201;-77
2022/07/31 12:35:03;;;;;;;2.92;1.90;;;27.40;1.00;;;;;;5115121;28;20699;-77
2022/07/31 12:37:29;;;;;;;3.05;2.10;;;27.60;1.00;;;;;;5114451;28;20642;-77
2022/07/31 12:39:56;;;;;;;3.35;2.17;;;27.60;1.00;;;;;;5114409;28;20171;-77
2022/07/31 12:42:33;;;;;;;3.20;2.03;;;27.70;1.00;;;;;;5114031;28;20265;-77
2022/07/31 12:45:01;;;;;;;2.80;2.60;;;27.60;99.90;;;;;;5114566;28;20163;-77
2022/07/31 12:47:29;;;;;;;1.98;1.75;;;27.50;99.90;;;;;;5114392;28;20243;-76
2022/07/31 12:49:56;;;;;;;2.00;1.80;;;27.50;1.00;;;;;;5114750;28;20163;-75
2022/07/31 12:52:24;;;;;;;1.83;1.70;;;27.40;99.90;;;;;;5113800;28;20163;-76
2022/07/31 12:54:50;;;;;;;2.70;1.90;;;27.50;99.90;;;;;;5113718;28;20177;-75
2022/07/31 12:57:16;;;;;;;4.13;2.15;;;27.60;1.00;;;;;;5113136;28;20553;-78